createdAt,value
2018-03-08T00:00:51.223Z,220.50
2018-03-08T00:01:51.248Z,236.00
2018-03-08T00:02:51.257Z,232.10
2018-03-08T00:03:51.265Z,249.20
2018-03-08T00:04:51.283Z,246.60
2018-03-08T00:05:51.304Z,237.40
2018-03-08T00:06:51.305Z,245.80
2018-03-08T00:07:51.316Z,240.00
2018-03-08T00:08:51.339Z,229.60
2018-03-08T00:09:51.346Z,240.40
2018-03-08T00:10:51.352Z,225.40
2018-03-08T00:11:51.366Z,241.20
2018-03-08T00:12:51.380Z,248.80
2018-03-08T00:13:51.388Z,254.60
2018-03-08T00:14:51.402Z,244.90
2018-03-08T00:15:51.407Z,254.70
2018-03-08T00:16:51.434Z,262.00
2018-03-08T00:17:51.446Z,249.40
2018-03-08T00:18:51.447Z,254.90
2018-03-08T00:19:51.474Z,262.30
2018-03-08T00:20:51.479Z,268.40
2018-03-08T00:21:51.487Z,262.50
2018-03-08T00:22:51.508Z,263.50
2018-03-08T00:23:51.503Z,263.10
2018-03-08T00:24:51.528Z,272.50
2018-03-08T00:25:51.536Z,280.60
2018-03-08T00:26:51.542Z,264.80
2018-03-08T00:27:51.569Z,271.50
2018-03-08T00:28:51.580Z,276.90
2018-03-08T00:29:51.584Z,275.10
2018-03-08T00:30:51.604Z,276.00
2018-03-08T00:31:51.611Z,282.60
2018-03-08T00:32:51.626Z,278.80
2018-03-08T00:33:51.633Z,291.70
2018-03-08T00:34:51.637Z,286.90
2018-03-08T00:35:51.673Z,306.40
2018-03-08T00:36:51.671Z,293.40
2018-03-08T00:37:51.679Z,296.60
2018-03-08T00:38:51.694Z,297.20
2018-03-08T00:39:51.711Z,302.40
2018-03-08T00:40:51.721Z,304.00
2018-03-08T00:41:51.730Z,291.20
2018-03-08T00:42:51.737Z,295.30
2018-03-08T00:43:51.765Z,297.60
2018-03-08T00:44:51.770Z,288.40
2018-03-08T00:45:51.774Z,294.50
2018-03-08T00:46:51.787Z,288.80
2018-03-08T00:47:51.806Z,299.50
2018-03-08T00:48:51.818Z,287.80
2018-03-08T00:49:51.828Z,295.00
2018-03-08T00:50:51.844Z,318.60
2018-03-08T00:51:51.850Z,306.60
2018-03-08T00:52:51.864Z,286.20
2018-03-08T00:53:51.875Z,298.00
2018-03-08T00:54:51.891Z,308.30
2018-03-08T00:55:51.906Z,307.60
2018-03-08T00:56:51.918Z,314.60
2018-03-08T00:57:51.921Z,306.40
2018-03-08T00:58:51.944Z,296.00
2018-03-08T00:59:51.947Z,285.80
2018-03-08T01:00:51.960Z,308.30
2018-03-08T01:01:51.968Z,312.10
2018-03-08T01:02:51.989Z,312.90
2018-03-08T01:03:52.002Z,289.90
2018-03-08T01:04:52.010Z,305.00
2018-03-08T01:05:52.015Z,299.00
2018-03-08T01:06:52.045Z,293.80
2018-03-08T01:07:52.050Z,291.80
2018-03-08T01:08:52.059Z,296.60
2018-03-08T01:09:52.069Z,275.50
2018-03-08T01:10:52.088Z,276.00
2018-03-08T01:11:52.097Z,296.30
2018-03-08T01:12:52.099Z,292.40
2018-03-08T01:13:52.115Z,308.90
2018-03-08T01:14:52.134Z,288.50
2018-03-08T01:15:52.142Z,290.70
2018-03-08T01:16:52.163Z,302.20
2018-03-08T01:17:52.166Z,298.60
2018-03-08T01:18:52.180Z,322.30
2018-03-08T01:19:52.203Z,332.10
2018-03-08T01:20:52.196Z,312.50
2018-03-08T01:21:52.224Z,315.70
2018-03-08T01:22:52.230Z,310.00
2018-03-08T01:23:52.241Z,313.40
2018-03-08T01:24:52.256Z,310.60
2018-03-08T01:25:52.258Z,301.40
2018-03-08T01:26:52.283Z,313.00
2018-03-08T01:27:52.290Z,305.90
2018-03-08T01:28:52.295Z,295.40
2018-03-08T01:29:52.320Z,301.50
2018-03-08T01:30:52.329Z,339.10
2018-03-08T01:31:52.333Z,303.60
2018-03-08T01:32:52.387Z,324.80
2018-03-08T01:33:52.354Z,321.30
2018-03-08T01:34:52.371Z,311.50
2018-03-08T01:35:52.387Z,316.40
2018-03-08T01:36:52.392Z,304.20
2018-03-08T01:37:52.413Z,304.10
2018-03-08T01:38:52.424Z,329.80
2018-03-08T01:39:52.442Z,314.20
2018-03-08T01:40:52.444Z,310.40
2018-03-08T01:41:52.454Z,335.80
2018-03-08T01:42:52.470Z,312.70
2018-03-08T01:43:52.480Z,302.20
2018-03-08T01:44:52.497Z,311.80
2018-03-08T01:45:52.506Z,276.50
2018-03-08T01:46:52.521Z,281.50
2018-03-08T01:47:52.530Z,295.20
2018-03-08T01:48:52.539Z,298.50
2018-03-08T01:49:52.550Z,311.60
2018-03-08T01:50:52.570Z,310.50
2018-03-08T01:51:52.580Z,311.80
2018-03-08T01:52:52.582Z,340.20
2018-03-08T01:53:52.602Z,303.70
2018-03-08T01:54:52.616Z,294.10
2018-03-08T01:55:52.621Z,286.70
2018-03-08T01:56:52.654Z,293.50
2018-03-08T01:57:52.645Z,294.90
2018-03-08T01:58:52.663Z,274.50
2018-03-08T01:59:52.671Z,288.20
2018-03-08T02:00:52.678Z,302.70
2018-03-08T02:01:52.698Z,291.50
2018-03-08T02:02:52.716Z,283.00
2018-03-08T02:03:52.717Z,277.10
2018-03-08T02:04:52.732Z,287.30
2018-03-08T02:05:52.744Z,275.50
2018-03-08T02:06:52.765Z,288.20
2018-03-08T02:07:52.769Z,293.90
2018-03-08T02:08:52.775Z,309.30
2018-03-08T02:09:52.795Z,317.80
2018-03-08T02:10:52.819Z,317.40
2018-03-08T02:11:52.811Z,304.20
2018-03-08T02:12:52.825Z,315.40
2018-03-08T02:13:52.836Z,357.40
2018-03-08T02:14:52.851Z,382.70
2018-03-08T02:15:52.867Z,351.10
2018-03-08T02:16:52.872Z,346.60
2018-03-08T02:17:52.887Z,355.50
2018-03-08T02:18:52.909Z,336.40
2018-03-08T02:19:52.909Z,342.20
2018-03-08T02:20:52.922Z,351.60
2018-03-08T02:21:52.930Z,346.30
2018-03-08T02:22:52.951Z,362.60
2018-03-08T02:23:52.963Z,335.20
2018-03-08T02:24:52.969Z,316.00
2018-03-08T02:25:52.977Z,329.10
2018-03-08T02:26:53.003Z,310.00
2018-03-08T02:27:53.008Z,318.10
2018-03-08T02:28:53.019Z,319.10
2018-03-08T02:29:53.029Z,312.90
2018-03-08T02:30:53.049Z,320.60
2018-03-08T02:31:53.057Z,337.10
2018-03-08T02:32:53.064Z,330.00
2018-03-08T02:33:53.070Z,338.70
2018-03-08T02:34:53.097Z,340.60
2018-03-08T02:35:53.102Z,330.80
2018-03-08T02:36:53.117Z,318.30
2018-03-08T02:37:53.124Z,326.20
2018-03-08T02:38:53.133Z,319.20
2018-03-08T02:39:53.165Z,340.00
2018-03-08T02:40:53.157Z,310.80
2018-03-08T02:41:53.168Z,305.60
2018-03-08T02:42:53.197Z,317.10
2018-03-08T02:43:53.198Z,313.00
2018-03-08T02:44:53.215Z,319.50
2018-03-08T02:45:53.227Z,301.20
2018-03-08T02:46:53.225Z,311.40
2018-03-08T02:47:53.252Z,292.10
2018-03-08T02:48:53.256Z,283.60
2018-03-08T02:49:53.264Z,281.20
2018-03-08T02:50:53.283Z,290.40
2018-03-08T02:51:53.296Z,306.30
2018-03-08T02:52:53.307Z,280.90
2018-03-08T02:53:53.316Z,304.70
2018-03-08T02:54:53.324Z,304.80
2018-03-08T02:55:53.336Z,314.40
2018-03-08T02:56:53.355Z,316.80
2018-03-08T02:57:53.364Z,304.80
2018-03-08T02:58:53.375Z,293.20
2018-03-08T02:59:53.385Z,302.50
2018-03-08T03:00:53.401Z,299.60
2018-03-08T03:01:53.410Z,301.20
2018-03-08T03:02:53.422Z,296.00
2018-03-08T03:03:53.426Z,304.60
2018-03-08T03:04:53.460Z,283.70
2018-03-08T03:05:53.465Z,277.30
2018-03-08T03:06:53.467Z,281.30
2018-03-08T03:07:53.482Z,263.30
2018-03-08T03:08:53.495Z,285.40
2018-03-08T03:09:53.530Z,275.30
2018-03-08T03:10:53.518Z,280.80
2018-03-08T03:11:53.521Z,289.50
2018-03-08T03:12:53.545Z,303.50
2018-03-08T03:13:53.563Z,286.50
2018-03-08T03:14:53.561Z,301.70
2018-03-08T03:15:53.579Z,294.70
2018-03-08T03:16:53.590Z,305.10
2018-03-08T03:17:53.605Z,303.50
2018-03-08T03:18:53.619Z,282.20
2018-03-08T03:19:53.619Z,292.10
2018-03-08T03:20:53.648Z,280.00
2018-03-08T03:21:53.656Z,296.00
2018-03-08T03:22:53.662Z,290.80
2018-03-08T03:23:53.671Z,282.40
2018-03-08T03:24:53.678Z,291.10
2018-03-08T03:25:53.699Z,275.60
2018-03-08T03:26:53.710Z,287.70
2018-03-08T03:27:53.716Z,289.30
2018-03-08T03:28:53.740Z,284.20
2018-03-08T03:29:53.752Z,290.00
2018-03-08T03:30:53.755Z,294.80
2018-03-08T03:31:53.768Z,281.20
2018-03-08T03:32:53.776Z,276.10
2018-03-08T03:33:53.796Z,270.10
2018-03-08T03:34:53.808Z,295.70
2018-03-08T03:35:53.814Z,303.10
2018-03-08T03:36:53.852Z,303.90
2018-03-08T03:37:53.847Z,316.00
2018-03-08T03:38:53.848Z,314.70
2018-03-08T03:39:53.865Z,328.40
2018-03-08T03:40:53.871Z,334.20
2018-03-08T03:41:53.902Z,331.60
2018-03-08T03:42:53.905Z,335.20
2018-03-08T03:43:53.905Z,317.10
2018-03-08T03:44:53.926Z,331.30
2018-03-08T03:45:53.944Z,331.70
2018-03-08T03:46:53.946Z,320.10
2018-03-08T03:47:53.958Z,316.80
2018-03-08T03:48:53.969Z,321.70
2018-03-08T03:49:53.991Z,318.30
2018-03-08T03:50:53.997Z,305.40
2018-03-08T03:51:54.007Z,297.90
2018-03-08T03:52:54.018Z,299.20
2018-03-08T03:53:54.038Z,295.90
2018-03-08T03:54:54.042Z,283.40
2018-03-08T03:55:54.054Z,308.40
2018-03-08T03:56:54.058Z,300.60
2018-03-08T03:57:54.081Z,287.80
2018-03-08T03:58:54.099Z,305.60
2018-03-08T03:59:54.104Z,318.70
2018-03-08T04:00:54.115Z,306.50
2018-03-08T04:01:54.123Z,313.30
2018-03-08T04:02:54.139Z,321.50
2018-03-08T04:03:54.150Z,301.70
2018-03-08T04:04:54.153Z,300.10
2018-03-08T04:05:54.186Z,290.50
2018-03-08T04:06:54.195Z,296.30
2018-03-08T04:07:54.200Z,312.60
2018-03-08T04:08:54.215Z,301.80
2018-03-08T04:09:54.220Z,311.20
2018-03-08T04:10:54.236Z,329.70
2018-03-08T04:11:54.247Z,305.30
2018-03-08T04:12:54.257Z,329.70
2018-03-08T04:13:54.276Z,332.30
2018-03-08T04:14:54.285Z,303.90
2018-03-08T04:15:54.296Z,298.80
2018-03-08T04:16:54.309Z,316.90
2018-03-08T04:17:54.313Z,305.10
2018-03-08T04:18:54.330Z,313.60
2018-03-08T04:19:54.344Z,291.60
2018-03-08T04:20:54.361Z,281.00
2018-03-08T04:21:54.370Z,311.50
2018-03-08T04:22:54.383Z,307.90
2018-03-08T04:23:54.386Z,296.50
2018-03-08T04:24:54.401Z,304.20
2018-03-08T04:25:54.410Z,285.70
2018-03-08T04:26:54.425Z,279.60
2018-03-08T04:27:54.440Z,281.80
2018-03-08T04:28:54.445Z,279.70
2018-03-08T04:29:54.454Z,296.50
2018-03-08T04:30:54.468Z,284.50
2018-03-08T04:31:54.495Z,296.60
2018-03-08T04:32:54.501Z,290.60
2018-03-08T04:33:54.504Z,298.10
2018-03-08T04:34:54.510Z,303.60
2018-03-08T04:35:54.534Z,296.60
2018-03-08T04:36:54.542Z,288.20
2018-03-08T04:37:54.549Z,294.70
2018-03-08T04:38:54.562Z,296.50
2018-03-08T04:39:54.580Z,299.10
2018-03-08T04:40:54.597Z,304.80
2018-03-08T04:41:54.603Z,305.80
2018-03-08T04:42:54.608Z,319.40
2018-03-08T04:43:54.632Z,302.00
2018-03-08T04:44:54.637Z,300.00
2018-03-08T04:45:54.644Z,304.30
2018-03-08T04:46:54.657Z,293.60
2018-03-08T04:47:54.678Z,310.10
2018-03-08T04:48:54.710Z,295.00
2018-03-08T04:49:54.702Z,311.00
2018-03-08T04:50:54.708Z,304.80
2018-03-08T04:51:54.729Z,288.10
2018-03-08T04:52:54.734Z,300.60
2018-03-08T04:53:54.743Z,284.90
2018-03-08T04:54:54.756Z,288.00
2018-03-08T04:55:54.776Z,279.00
2018-03-08T04:56:54.783Z,294.10
2018-03-08T04:57:54.792Z,291.30
2018-03-08T04:58:54.797Z,313.20
2018-03-08T04:59:54.825Z,293.70
2018-03-08T05:00:54.833Z,296.80
2018-03-08T05:01:54.841Z,297.20
2018-03-08T05:02:54.852Z,299.10
2018-03-08T05:03:54.871Z,293.30
2018-03-08T05:04:54.880Z,279.10
2018-03-08T05:05:54.895Z,289.80
2018-03-08T05:06:54.894Z,308.80
2018-03-08T05:07:54.915Z,319.60
2018-03-08T05:08:54.929Z,327.50
2018-03-08T05:09:54.937Z,312.80
2018-03-08T05:10:54.941Z,337.20
2018-03-08T05:11:54.960Z,297.00
2018-03-08T05:12:54.975Z,315.40
2018-03-08T05:13:54.987Z,341.80
2018-03-08T05:14:54.997Z,372.70
2018-03-08T05:15:54.999Z,360.60
2018-03-08T05:16:55.029Z,349.30
2018-03-08T05:17:55.037Z,340.90
2018-03-08T05:18:55.038Z,337.40
2018-03-08T05:19:55.054Z,352.70
2018-03-08T05:20:55.060Z,366.20
2018-03-08T05:21:55.078Z,426.90
2018-03-08T05:22:55.093Z,426.00
2018-03-08T05:23:55.100Z,341.50
2018-03-08T05:24:55.123Z,344.90
2018-03-08T05:25:55.132Z,368.60
2018-03-08T05:26:55.158Z,368.20
2018-03-08T05:27:55.151Z,366.60
2018-03-08T05:28:55.151Z,390.60
2018-03-08T05:29:55.164Z,399.60
2018-03-08T05:30:55.208Z,381.10
2018-03-08T05:31:55.197Z,414.00
2018-03-08T05:32:55.206Z,389.00
2018-03-08T05:33:55.219Z,408.60
2018-03-08T05:34:55.220Z,382.60
2018-03-08T05:35:55.243Z,389.20
2018-03-08T05:36:55.252Z,372.70
2018-03-08T05:37:55.256Z,376.30
2018-03-08T05:38:55.275Z,382.60
2018-03-08T05:39:55.300Z,388.50
2018-03-08T05:40:55.300Z,400.80
2018-03-08T05:41:55.308Z,373.90
2018-03-08T05:42:55.314Z,380.50
2018-03-08T05:43:55.340Z,364.10
2018-03-08T05:44:55.347Z,399.20
2018-03-08T05:45:55.356Z,377.10
2018-03-08T05:46:55.368Z,383.70
2018-03-08T05:47:55.370Z,396.40
2018-03-08T05:48:55.398Z,407.30
2018-03-08T05:49:55.411Z,372.60
2018-03-08T05:50:55.410Z,357.40
2018-03-08T05:51:55.426Z,359.00
2018-03-08T05:52:55.433Z,384.20
2018-03-08T05:53:55.441Z,421.20
2018-03-08T05:54:55.464Z,355.10
2018-03-08T05:55:55.469Z,338.60
2018-03-08T05:56:55.494Z,322.00
2018-03-08T05:57:55.491Z,356.10
2018-03-08T05:58:55.497Z,364.00
2018-03-08T05:59:55.526Z,322.90
2018-03-08T06:00:55.524Z,329.90
2018-03-08T06:01:55.540Z,423.10
2018-03-08T06:02:55.546Z,330.20
2018-03-08T06:03:55.565Z,327.70
2018-03-08T06:04:55.578Z,332.70
2018-03-08T06:05:55.587Z,333.30
2018-03-08T06:06:55.591Z,302.90
2018-03-08T06:07:55.621Z,306.40
2018-03-08T06:08:55.620Z,331.10
2018-03-08T06:09:55.629Z,319.30
2018-03-08T06:10:55.643Z,320.40
2018-03-08T06:11:55.653Z,337.10
2018-03-08T06:12:55.676Z,292.20
2018-03-08T06:13:55.686Z,297.80
2018-03-08T06:14:55.688Z,309.10
2018-03-08T06:15:55.704Z,284.30
2018-03-08T06:16:55.716Z,273.90
2018-03-08T06:17:55.724Z,271.00
2018-03-08T06:18:55.739Z,285.40
2018-03-08T06:19:55.746Z,361.00
2018-03-08T06:20:55.770Z,255.70
2018-03-08T06:21:55.780Z,236.90
2018-03-08T06:22:55.786Z,301.20
2018-03-08T06:23:55.796Z,280.20
2018-03-08T06:24:55.812Z,273.60
2018-03-08T06:25:55.826Z,240.30
2018-03-08T06:26:55.834Z,253.00
2018-03-08T06:27:55.838Z,226.90
2018-03-08T06:28:55.863Z,221.20
2018-03-08T06:29:55.872Z,217.20
2018-03-08T06:30:55.878Z,189.80
2018-03-08T06:31:55.896Z,189.40
2018-03-08T06:32:55.903Z,181.00
2018-03-08T06:33:55.918Z,177.80
2018-03-08T06:34:55.936Z,184.50
2018-03-08T06:35:55.942Z,181.10
2018-03-08T06:36:55.967Z,180.20
2018-03-08T06:37:55.974Z,166.10
2018-03-08T06:38:55.994Z,177.00
2018-03-08T06:39:55.988Z,184.90
2018-03-08T06:40:55.998Z,183.90
2018-03-08T06:41:56.015Z,165.20
2018-03-08T06:42:56.029Z,157.50
2018-03-08T06:43:56.032Z,189.70
2018-03-08T06:44:56.062Z,177.50
2018-03-08T06:45:56.072Z,165.10
2018-03-08T06:46:56.089Z,182.90
2018-03-08T06:47:56.088Z,185.70
2018-03-08T06:48:56.107Z,178.90
2018-03-08T06:49:56.122Z,163.10
2018-03-08T06:50:56.127Z,167.80
2018-03-08T06:51:56.144Z,164.50
2018-03-08T06:52:56.156Z,168.30
2018-03-08T06:53:56.164Z,149.90
2018-03-08T06:54:56.170Z,158.40
2018-03-08T06:55:56.191Z,159.50
2018-03-08T06:56:56.196Z,154.70
2018-03-08T06:57:56.209Z,185.20
2018-03-08T06:58:56.224Z,142.10
2018-03-08T06:59:56.235Z,152.70
2018-03-08T07:00:56.248Z,149.70
2018-03-08T07:01:56.258Z,148.90
2018-03-08T07:02:56.274Z,156.80
2018-03-08T07:03:56.289Z,151.30
2018-03-08T07:04:56.295Z,152.30
2018-03-08T07:05:56.304Z,150.40
2018-03-08T07:06:56.330Z,144.30
2018-03-08T07:07:56.336Z,162.20
2018-03-08T07:08:56.344Z,149.40
2018-03-08T07:09:56.369Z,152.30
2018-03-08T07:10:56.371Z,148.70
2018-03-08T07:11:56.386Z,143.20
2018-03-08T07:12:56.404Z,140.70
2018-03-08T07:13:56.411Z,130.90
2018-03-08T07:14:56.425Z,122.90
2018-03-08T07:15:56.451Z,134.10
2018-03-08T07:16:56.456Z,125.20
2018-03-08T07:17:56.463Z,126.70
2018-03-08T07:18:56.471Z,123.40
2018-03-08T07:19:56.489Z,125.90
2018-03-08T07:20:56.499Z,119.90
2018-03-08T07:21:56.506Z,127.60
2018-03-08T07:22:56.528Z,121.40
2018-03-08T07:23:56.536Z,123.50
2018-03-08T07:24:56.551Z,124.30
2018-03-08T07:25:56.571Z,119.50
2018-03-08T07:26:56.576Z,136.00
2018-03-08T07:27:56.593Z,130.00
2018-03-08T07:28:56.610Z,122.20
2018-03-08T07:29:56.614Z,126.70
2018-03-08T07:30:56.623Z,117.90
2018-03-08T07:31:56.645Z,121.10
2018-03-08T07:32:56.657Z,114.20
2018-03-08T07:33:56.665Z,115.60
2018-03-08T07:34:56.685Z,117.40
2018-03-08T07:35:56.697Z,119.30
2018-03-08T07:36:56.702Z,113.90
2018-03-08T07:37:56.727Z,116.50
2018-03-08T07:38:56.732Z,111.10
2018-03-08T07:39:56.745Z,103.20
2018-03-08T07:40:56.766Z,111.90
2018-03-08T07:41:56.772Z,103.00
2018-03-08T07:42:56.781Z,92.40
2018-03-08T07:43:56.806Z,106.70
2018-03-08T07:44:56.824Z,103.30
2018-03-08T07:45:56.824Z,101.90
2018-03-08T07:46:56.840Z,101.60
2018-03-08T07:47:56.850Z,96.00
2018-03-08T07:48:56.867Z,95.90
2018-03-08T07:49:56.883Z,105.90
2018-03-08T07:50:56.889Z,88.50
2018-03-08T07:51:56.898Z,92.00
2018-03-08T07:52:56.923Z,89.00
2018-03-08T07:53:56.928Z,87.10
2018-03-08T07:54:56.941Z,81.30
2018-03-08T07:55:56.959Z,79.70
2018-03-08T07:56:56.970Z,74.80
2018-03-08T07:57:56.978Z,68.40
2018-03-08T07:58:57.001Z,63.10
2018-03-08T07:59:57.007Z,67.00
2018-03-08T08:00:57.017Z,65.40
2018-03-08T08:01:57.037Z,56.40
2018-03-08T08:02:57.047Z,55.30
2018-03-08T08:03:57.054Z,55.80
2018-03-08T08:04:57.076Z,60.60
2018-03-08T08:05:57.086Z,56.20
2018-03-08T08:06:57.094Z,54.50
2018-03-08T08:07:57.115Z,50.10
2018-03-08T08:08:57.124Z,54.00
2018-03-08T08:09:57.137Z,52.60
2018-03-08T08:10:57.165Z,48.30
2018-03-08T08:11:57.165Z,48.20
2018-03-08T08:12:57.174Z,49.80
2018-03-08T08:13:57.198Z,47.50
2018-03-08T08:14:57.206Z,44.60
2018-03-08T08:15:57.223Z,44.30
2018-03-08T08:16:57.234Z,49.40
2018-03-08T08:17:57.245Z,42.10
2018-03-08T08:18:57.262Z,46.00
2018-03-08T08:19:57.294Z,45.20
2018-03-08T08:20:57.298Z,46.90
2018-03-08T08:21:57.306Z,46.00
2018-03-08T08:22:57.311Z,45.40
2018-03-08T08:23:57.323Z,45.70
2018-03-08T08:24:57.341Z,49.90
2018-03-08T08:25:57.352Z,52.20
2018-03-08T08:26:57.366Z,48.20
2018-03-08T08:27:57.385Z,49.50
2018-03-08T08:28:57.392Z,50.70
2018-03-08T08:29:57.398Z,49.80
2018-03-08T08:30:57.421Z,47.90
2018-03-08T08:31:57.432Z,49.20
2018-03-08T08:32:57.443Z,44.80
2018-03-08T08:33:57.459Z,44.20
2018-03-08T08:34:57.468Z,44.90
2018-03-08T08:35:57.493Z,45.70
2018-03-08T08:36:57.498Z,47.20
2018-03-08T08:37:57.510Z,44.10
2018-03-08T08:38:57.529Z,50.00
2018-03-08T08:39:57.550Z,51.50
2018-03-08T08:40:57.545Z,42.20
2018-03-08T08:41:57.572Z,45.40
2018-03-08T08:42:57.577Z,44.10
2018-03-08T08:43:57.587Z,45.40
2018-03-08T08:44:57.608Z,47.10
2018-03-08T08:45:57.616Z,44.80
2018-03-08T08:46:57.625Z,42.00
2018-03-08T08:47:57.647Z,46.60
2018-03-08T08:48:57.655Z,46.80
2018-03-08T08:49:57.670Z,41.60
2018-03-08T08:50:57.686Z,41.20
2018-03-08T08:51:57.694Z,41.30
2018-03-08T08:52:57.718Z,43.00
2018-03-08T08:53:57.726Z,47.40
2018-03-08T08:54:57.733Z,46.00
2018-03-08T08:55:57.755Z,45.00
2018-03-08T08:56:57.772Z,40.90
2018-03-08T08:57:57.772Z,39.00
2018-03-08T08:58:57.794Z,39.80
2018-03-08T08:59:57.804Z,38.40
2018-03-08T09:00:57.811Z,40.80
2018-03-08T09:01:57.836Z,38.60
2018-03-08T09:02:57.842Z,40.00
2018-03-08T09:03:57.854Z,37.50
2018-03-08T09:04:57.872Z,38.20
2018-03-08T09:05:57.883Z,42.80
2018-03-08T09:06:57.890Z,39.00
2018-03-08T09:07:57.912Z,41.20
2018-03-08T09:08:57.924Z,40.00
2018-03-08T09:09:57.929Z,38.30
2018-03-08T09:10:57.962Z,37.00
2018-03-08T09:11:57.960Z,37.60
2018-03-08T09:12:57.980Z,39.40
2018-03-08T09:13:57.990Z,33.40
2018-03-08T09:14:57.998Z,39.20
2018-03-08T09:15:58.020Z,36.50
2018-03-08T09:16:58.029Z,38.20
2018-03-08T09:17:58.042Z,34.90
2018-03-08T09:18:58.064Z,36.20
2018-03-08T09:19:58.068Z,37.10
2018-03-08T09:20:58.078Z,35.20
2018-03-08T09:21:58.103Z,33.50
2018-03-08T09:22:58.107Z,35.30
2018-03-08T09:23:58.120Z,34.90
2018-03-08T09:24:58.146Z,35.60
2018-03-08T09:25:58.147Z,34.30
2018-03-08T09:26:58.155Z,35.30
2018-03-08T09:27:58.177Z,38.10
2018-03-08T09:28:58.185Z,37.80
2018-03-08T09:29:58.210Z,34.50
2018-03-08T09:30:58.218Z,31.70
2018-03-08T09:31:58.230Z,34.10
2018-03-08T09:32:58.252Z,33.80
2018-03-08T09:33:58.257Z,33.50
2018-03-08T09:34:58.269Z,31.90
2018-03-08T09:35:58.288Z,32.10
2018-03-08T09:36:58.299Z,28.50
2018-03-08T09:37:58.306Z,34.20
2018-03-08T09:38:58.327Z,32.30
2018-03-08T09:39:58.338Z,32.80
2018-03-08T09:40:58.343Z,33.20
2018-03-08T09:41:58.367Z,28.60
2018-03-08T09:42:58.373Z,28.10
2018-03-08T09:43:58.386Z,29.10
2018-03-08T09:44:58.403Z,27.90
2018-03-08T09:45:58.416Z,26.90
2018-03-08T09:46:58.433Z,30.60
2018-03-08T09:47:58.442Z,27.70
2018-03-08T09:48:58.452Z,28.90
2018-03-08T09:49:58.478Z,29.30
2018-03-08T09:50:58.482Z,26.60
2018-03-08T09:51:58.490Z,26.80
2018-03-08T09:52:58.512Z,26.00
2018-03-08T09:53:58.520Z,25.60
2018-03-08T09:54:58.529Z,28.80
2018-03-08T09:55:58.554Z,27.10
2018-03-08T09:56:58.559Z,27.20
2018-03-08T09:57:58.568Z,28.30
2018-03-08T09:58:58.607Z,28.30
2018-03-08T09:59:58.599Z,30.10
2018-03-08T10:00:58.633Z,29.60
2018-03-08T10:01:58.629Z,30.10
2018-03-08T10:02:58.637Z,31.00
2018-03-08T10:03:58.663Z,29.40
2018-03-08T10:04:58.675Z,28.90
2018-03-08T10:05:58.678Z,31.20
2018-03-08T10:06:58.698Z,30.80
2018-03-08T10:07:58.712Z,31.00
2018-03-08T10:08:58.716Z,33.60
2018-03-08T10:09:58.737Z,35.10
2018-03-08T10:10:58.746Z,31.60
2018-03-08T10:11:58.755Z,38.30
2018-03-08T10:12:58.776Z,32.90
2018-03-08T10:13:58.790Z,35.40
2018-03-08T10:14:58.806Z,34.10
2018-03-08T10:15:58.816Z,33.80
2018-03-08T10:16:58.828Z,37.20
2018-03-08T10:17:58.840Z,36.20
2018-03-08T10:18:58.871Z,37.40
2018-03-08T10:19:58.865Z,36.10
2018-03-08T10:20:58.886Z,39.00
2018-03-08T10:21:58.899Z,38.90
2018-03-08T10:22:58.904Z,40.10
2018-03-08T10:23:58.929Z,38.20
2018-03-08T10:24:58.934Z,34.60
2018-03-08T10:25:58.943Z,37.30
2018-03-08T10:26:58.967Z,37.30
2018-03-08T10:27:58.973Z,35.70
2018-03-08T10:28:59.059Z,36.60
2018-03-08T10:29:59.004Z,35.70
2018-03-08T10:30:59.011Z,40.40
2018-03-08T10:31:59.033Z,43.40
2018-03-08T10:32:59.048Z,40.00
2018-03-08T10:33:59.051Z,43.00
2018-03-08T10:34:59.076Z,45.60
2018-03-08T10:35:59.085Z,46.40
2018-03-08T10:36:59.106Z,43.00
2018-03-08T10:37:59.115Z,44.80
2018-03-08T10:38:59.124Z,42.50
2018-03-08T10:39:59.145Z,46.40
2018-03-08T10:40:59.216Z,45.50
2018-03-08T10:41:59.164Z,45.30
2018-03-08T10:42:59.184Z,48.80
2018-03-08T10:43:59.190Z,48.20
2018-03-08T10:44:59.211Z,48.70
2018-03-08T10:45:59.224Z,45.80
2018-03-08T10:46:59.228Z,46.30
2018-03-08T10:47:59.253Z,49.20
2018-03-08T10:49:59.280Z,51.80
2018-03-08T10:50:59.293Z,46.60
2018-03-08T10:51:59.298Z,50.30
2018-03-08T10:52:59.320Z,51.60
2018-03-08T10:53:59.334Z,54.50
2018-03-08T10:54:59.342Z,54.30
2018-03-08T10:55:59.360Z,53.30
2018-03-08T10:56:59.370Z,50.00
2018-03-08T10:57:59.395Z,46.60
2018-03-08T10:58:59.400Z,52.80
2018-03-08T10:59:59.407Z,49.50
2018-03-08T11:00:59.432Z,47.90
2018-03-08T11:01:59.437Z,51.40
2018-03-08T11:02:59.460Z,49.60
2018-03-08T11:03:59.471Z,49.10
2018-03-08T11:04:59.479Z,49.40
2018-03-08T11:05:59.501Z,54.10
2018-03-08T11:06:59.506Z,50.20
2018-03-08T11:07:59.531Z,50.60
2018-03-08T11:08:59.539Z,51.60
2018-03-08T11:09:59.547Z,54.40
2018-03-08T11:10:59.566Z,52.80
2018-03-08T11:11:59.576Z,49.50
2018-03-08T11:12:59.598Z,55.90
2018-03-08T11:13:59.610Z,50.70
2018-03-08T11:14:59.628Z,49.80
2018-03-08T11:15:59.641Z,54.80
2018-03-08T11:16:59.659Z,58.40
2018-03-08T11:17:59.671Z,49.90
2018-03-08T11:18:59.723Z,51.10
2018-03-08T11:19:59.699Z,50.60
2018-03-08T11:20:59.722Z,52.60
2018-03-08T11:21:59.733Z,49.80
2018-03-08T11:22:59.749Z,55.90
2018-03-08T11:23:59.758Z,52.50
2018-03-08T11:24:59.780Z,59.50
2018-03-08T11:25:59.791Z,54.40
2018-03-08T11:26:59.809Z,54.30
2018-03-08T11:27:59.819Z,50.50
2018-03-08T11:28:59.840Z,55.70
2018-03-08T11:29:59.924Z,53.30
2018-03-08T11:30:59.870Z,48.20
2018-03-08T11:31:59.881Z,47.50
2018-03-08T11:32:59.901Z,49.00
2018-03-08T11:33:59.925Z,49.60
2018-03-08T11:34:59.932Z,43.20
2018-03-08T11:35:59.951Z,46.70
2018-03-08T11:36:59.962Z,41.70
2018-03-08T11:37:59.984Z,44.80
2018-03-08T11:38:59.996Z,45.10
2018-03-08T11:40:00.013Z,38.70
2018-03-08T11:41:01.746Z,40.30
2018-03-08T11:42:00.044Z,42.90
2018-03-08T11:43:00.064Z,44.40
2018-03-08T11:44:00.086Z,41.40
2018-03-08T11:45:00.098Z,41.10
2018-03-08T11:46:00.115Z,43.40
2018-03-08T11:47:00.126Z,41.40
2018-03-08T11:48:00.150Z,36.30
2018-03-08T11:49:00.412Z,39.00
2018-03-08T11:50:00.176Z,41.20
2018-03-08T11:51:00.201Z,42.70
2018-03-08T11:52:00.222Z,35.70
2018-03-08T11:53:00.232Z,41.80
2018-03-08T11:54:00.254Z,45.30
2018-03-08T11:55:00.275Z,43.80
2018-03-08T11:56:00.279Z,39.50
2018-03-08T11:57:00.301Z,40.30
2018-03-08T11:58:00.326Z,39.50
2018-03-08T11:59:00.332Z,41.80
2018-03-08T12:00:00.353Z,45.20
2018-03-08T12:01:00.374Z,39.30
2018-03-08T12:02:00.382Z,42.60
2018-03-08T12:03:00.417Z,43.40
2018-03-08T12:04:00.426Z,45.50
2018-03-08T12:05:00.439Z,45.80
2018-03-08T12:06:00.456Z,43.30
2018-03-08T12:07:00.479Z,39.90
2018-03-08T12:08:00.490Z,38.90
2018-03-08T12:09:00.512Z,39.60
2018-03-08T12:10:00.529Z,36.90
2018-03-08T12:11:00.559Z,35.70
2018-03-08T12:12:00.621Z,41.10
2018-03-08T12:13:00.585Z,40.70
2018-03-08T12:14:00.592Z,39.10
2018-03-08T12:15:00.615Z,53.10
2018-03-08T12:16:00.636Z,39.10
2018-03-08T12:17:00.709Z,39.80
2018-03-08T12:18:00.710Z,35.50
2018-03-08T12:19:00.684Z,34.80
2018-03-08T12:20:00.710Z,35.60
2018-03-08T12:21:00.715Z,35.90
2018-03-08T12:22:00.736Z,37.50
2018-03-08T12:23:00.761Z,36.30
2018-03-08T12:24:00.766Z,38.70
2018-03-08T12:25:00.794Z,36.30
2018-03-08T12:26:00.814Z,36.10
2018-03-08T12:27:00.830Z,39.90
2018-03-08T12:28:00.842Z,37.60
2018-03-08T12:29:00.864Z,35.10
2018-03-08T12:30:00.895Z,34.20
2018-03-08T12:31:00.891Z,37.70
2018-03-08T12:32:00.916Z,40.00
2018-03-08T12:33:00.937Z,34.60
2018-03-08T12:34:00.955Z,33.30
2018-03-08T12:35:00.964Z,33.90
2018-03-08T12:36:00.986Z,31.40
2018-03-08T12:37:01.007Z,30.90
2018-03-08T12:38:01.020Z,32.50
2018-03-08T12:39:01.038Z,32.70